Time;durP1;ratioP1;P1;durP2;ratioP2;P2;SDS_P1;SDS_P2;PMS_P1;PMS_P2;Temp;Humidity;BMP_temperature;BMP_pressure;BME280_temperature;BME280_humidity;BME280_pressure;Samples;Min_cycle;Max_cycle;Signal;HPM_P1;HPM_P2
2022/08/05 00:01:56;;;;;;;5.63;2.60;;;18.60;99.90;;;;;;5014808;28;20532;-69
2022/08/05 00:04:25;;;;;;;6.53;2.47;;;18.60;99.90;;;;;;5023453;28;20060;-69
2022/08/05 00:06:51;;;;;;;4.63;2.55;;;18.60;99.90;;;;;;5051576;28;20045;-70
2022/08/05 00:09:18;;;;;;;6.97;2.90;;;18.70;99.90;;;;;;5053086;28;20045;-70
2022/08/05 00:11:45;;;;;;;5.35;2.35;;;18.70;99.90;;;;;;5034249;28;20064;-70
2022/08/05 00:14:12;;;;;;;7.28;3.13;;;18.60;99.90;;;;;;5035129;28;20053;-70
2022/08/05 00:16:39;;;;;;;5.50;2.40;;;18.60;99.90;;;;;;5052717;28;20049;-70
2022/08/05 00:19:06;;;;;;;4.82;2.40;;;18.60;99.90;;;;;;5033044;28;20064;-69
2022/08/05 00:21:35;;;;;;;6.38;3.03;;;18.50;99.90;;;;;;5034095;28;20053;-69
2022/08/05 00:24:01;;;;;;;3.70;2.53;;;18.60;99.90;;;;;;5034365;28;20451;-70
2022/08/05 00:26:28;;;;;;;3.55;2.30;;;18.60;99.90;;;;;;5052012;28;20041;-69
2022/08/05 00:28:55;;;;;;;6.25;2.90;;;18.60;99.90;;;;;;5035102;28;20412;-70
2022/08/05 00:31:22;;;;;;;6.53;2.70;;;18.60;99.90;;;;;;5052183;28;20053;-71
2022/08/05 00:33:49;;;;;;;6.10;2.70;;;18.60;99.90;;;;;;5051266;28;20049;-70
2022/08/05 00:36:16;;;;;;;5.35;2.47;;;18.60;99.90;;;;;;5052371;28;20497;-70
2022/08/05 00:38:44;;;;;;;5.22;2.58;;;18.60;99.90;;;;;;5034516;28;20056;-71
2022/08/05 00:41:11;;;;;;;6.10;3.00;;;18.60;99.90;;;;;;5034511;28;20049;-71
2022/08/05 00:43:38;;;;;;;6.32;2.38;;;18.50;99.90;;;;;;5034330;28;20060;-71
2022/08/05 00:46:05;;;;;;;6.00;2.75;;;18.50;99.90;;;;;;5034303;28;20060;-71
2022/08/05 00:48:32;;;;;;;4.80;2.90;;;18.50;99.90;;;;;;5033652;28;20044;-71
2022/08/05 00:50:59;;;;;;;5.20;3.00;;;18.40;99.90;;;;;;5034775;28;20056;-71
2022/08/05 00:53:25;;;;;;;7.22;2.88;;;18.40;99.90;;;;;;5033787;28;20061;-70
2022/08/05 00:55:54;;;;;;;6.65;2.90;;;18.40;99.90;;;;;;5034851;28;20053;-69
2022/08/05 00:58:21;;;;;;;9.10;3.03;;;18.40;99.90;;;;;;5037258;28;20489;-70
2022/08/05 01:00:48;;;;;;;10.82;3.72;;;18.30;99.90;;;;;;5055298;28;20110;-71
2022/08/05 01:03:14;;;;;;;5.68;3.10;;;18.30;99.90;;;;;;5036872;28;20493;-71
2022/08/05 01:05:41;;;;;;;5.88;3.58;;;18.40;99.90;;;;;;5036981;28;20060;-69
2022/08/05 01:08:08;;;;;;;7.47;3.53;;;18.30;99.90;;;;;;5037267;28;20045;-69
2022/08/05 01:10:44;;;;;;;7.93;3.60;;;18.30;99.90;;;;;;5037921;28;20048;-70
2022/08/05 01:13:20;;;;;;;8.35;4.50;;;18.40;99.90;;;;;;5055592;28;20114;-70
2022/08/05 01:15:53;;;;;;;8.73;3.30;;;18.30;99.90;;;;;;5037442;28;20068;-70
2022/08/05 01:18:24;;;;;;;7.05;3.72;;;18.40;99.90;;;;;;5055621;28;20091;-69
2022/08/05 01:21:02;;;;;;;6.07;3.47;;;18.30;99.90;;;;;;5055312;28;20057;-70
2022/08/05 01:23:43;;;;;;;6.88;3.80;;;18.30;99.90;;;;;;5054828;28;20080;-69
2022/08/05 01:26:29;;;;;;;10.02;3.33;;;18.30;99.90;;;;;;5055064;28;20058;-69
2022/08/05 01:29:02;;;;;;;6.20;3.47;;;18.30;99.90;;;;;;5017024;28;20049;-69
2022/08/05 01:31:35;;;;;;;7.68;3.40;;;18.40;99.90;;;;;;5017791;28;20053;-70
2022/08/05 01:34:10;;;;;;;8.82;3.60;;;18.40;99.90;;;;;;5047011;28;20052;-69
2022/08/05 01:36:43;;;;;;;5.82;3.25;;;18.40;99.90;;;;;;5036975;28;20069;-69
2022/08/05 01:39:11;;;;;;;5.30;3.25;;;18.30;99.90;;;;;;5037309;28;20048;-69
2022/08/05 01:41:40;;;;;;;5.00;3.08;;;18.30;99.90;;;;;;5037692;28;20052;-70
2022/08/05 01:44:10;;;;;;;7.30;3.40;;;18.30;99.90;;;;;;5054468;28;20049;-70
2022/08/05 01:46:39;;;;;;;6.95;3.22;;;18.40;99.90;;;;;;5055182;28;20057;-70
2022/08/05 01:49:06;;;;;;;5.63;2.92;;;18.40;99.90;;;;;;5054232;28;20060;-69
2022/08/05 01:51:36;;;;;;;8.85;3.58;;;18.50;99.90;;;;;;5054895;28;20136;-70
2022/08/05 01:54:05;;;;;;;5.45;2.83;;;18.50;99.90;;;;;;5054946;28;20053;-69
2022/08/05 01:56:37;;;;;;;7.70;3.50;;;18.50;99.90;;;;;;5054799;28;20048;-70
2022/08/05 01:59:09;;;;;;;5.80;3.03;;;18.50;99.90;;;;;;5036817;28;20045;-69
2022/08/05 02:01:37;;;;;;;6.85;2.78;;;18.50;99.90;;;;;;5036932;28;20053;-69
2022/08/05 02:04:06;;;;;;;8.35;3.53;;;18.50;99.90;;;;;;5035639;28;20080;-71
2022/08/05 02:06:34;;;;;;;5.68;3.17;;;18.50;99.90;;;;;;5054670;28;20053;-70
2022/08/05 02:09:01;;;;;;;8.30;3.03;;;18.50;99.90;;;;;;5053521;28;20053;-70
2022/08/05 02:11:41;;;;;;;5.07;3.20;;;18.50;99.90;;;;;;5036001;28;20111;-69
2022/08/05 02:14:14;;;;;;;5.63;3.35;;;18.40;99.90;;;;;;5036133;28;20131;-70
2022/08/05 02:16:46;;;;;;;11.73;3.25;;;18.50;99.90;;;;;;5036953;28;20107;-70
2022/08/05 02:19:18;;;;;;;6.50;3.38;;;18.50;99.90;;;;;;5053710;28;20405;-71
2022/08/05 02:21:52;;;;;;;6.22;3.25;;;18.40;99.90;;;;;;5036595;28;20501;-70
2022/08/05 02:24:23;;;;;;;4.47;2.67;;;18.40;99.90;;;;;;5054071;28;20092;-71
2022/08/05 02:26:54;;;;;;;6.30;2.80;;;18.40;99.90;;;;;;5035805;28;20057;-71
2022/08/05 02:29:25;;;;;;;8.55;3.17;;;18.40;99.90;;;;;;5036177;28;20090;-71
2022/08/05 02:31:56;;;;;;;7.82;2.88;;;18.30;99.90;;;;;;5052913;28;20053;-71
2022/08/05 02:34:25;;;;;;;7.07;2.90;;;18.30;99.90;;;;;;5035774;28;20056;-70
2022/08/05 02:36:56;;;;;;;6.63;3.15;;;18.30;99.90;;;;;;5036395;28;20048;-70
2022/08/05 02:39:24;;;;;;;6.25;3.10;;;18.20;99.90;;;;;;5035571;28;20099;-70
2022/08/05 02:41:53;;;;;;;7.20;3.53;;;18.20;99.90;;;;;;5053715;28;20493;-70
2022/08/05 02:44:26;;;;;;;8.02;3.38;;;18.10;99.90;;;;;;5036401;28;20109;-70
2022/08/05 02:46:56;;;;;;;5.80;3.80;;;18.10;99.90;;;;;;5052899;28;20045;-70
2022/08/05 02:49:24;;;;;;;6.18;3.42;;;18.10;99.90;;;;;;5016093;28;20107;-70
2022/08/05 02:51:53;;;;;;;8.52;4.20;;;18.10;99.90;;;;;;5016469;28;20061;-70
2022/08/05 02:54:22;;;;;;;9.15;3.70;;;18.10;99.90;;;;;;5033204;28;20501;-70
2022/08/05 02:56:49;;;;;;;7.13;3.60;;;18.10;99.90;;;;;;5016229;28;20062;-70
2022/08/05 02:59:18;;;;;;;5.05;3.72;;;18.00;99.90;;;;;;5032824;28;20046;-70
2022/08/05 03:01:50;;;;;;;7.20;3.67;;;18.10;99.90;;;;;;5016892;28;20050;-70
2022/08/05 03:04:18;;;;;;;7.63;3.90;;;18.00;99.90;;;;;;5035813;28;20171;-70
2022/08/05 03:06:46;;;;;;;7.82;3.70;;;18.00;99.90;;;;;;5036034;28;20100;-70
2022/08/05 03:09:13;;;;;;;7.43;3.90;;;18.00;99.90;;;;;;5052659;28;20063;-71
2022/08/05 03:11:42;;;;;;;10.07;4.72;;;18.00;99.90;;;;;;5053123;28;20048;-70
2022/08/05 03:14:10;;;;;;;9.48;3.75;;;18.00;99.90;;;;;;5052568;28;20056;-70
2022/08/05 03:16:37;;;;;;;7.30;3.30;;;18.00;99.90;;;;;;5035806;28;20075;-70
2022/08/05 03:19:05;;;;;;;6.95;3.72;;;17.90;99.90;;;;;;5053491;28;20111;-70
2022/08/05 03:21:32;;;;;;;7.55;5.30;;;17.90;99.90;;;;;;5052325;28;20049;-69
2022/08/05 03:24:00;;;;;;;5.80;3.97;;;17.90;99.90;;;;;;5052888;28;20118;-68
2022/08/05 03:26:28;;;;;;;6.75;3.40;;;17.90;99.90;;;;;;5020061;28;20046;-70
2022/08/05 03:28:55;;;;;;;6.63;3.92;;;18.10;99.90;;;;;;5030031;28;20060;-69
2022/08/05 03:31:23;;;;;;;4.53;3.38;;;18.30;99.90;;;;;;5013930;28;20045;-70
2022/08/05 03:33:51;;;;;;;6.05;3.50;;;18.50;99.90;;;;;;5031072;28;20058;-69
2022/08/05 03:36:19;;;;;;;7.60;3.80;;;18.60;99.90;;;;;;5030618;28;20108;-70
2022/08/05 03:38:46;;;;;;;8.88;3.35;;;18.70;99.90;;;;;;5034079;28;20045;-70
2022/08/05 03:41:15;;;;;;;5.43;3.20;;;18.80;99.90;;;;;;5031336;28;20060;-70
2022/08/05 03:43:42;;;;;;;6.88;2.92;;;18.80;99.90;;;;;;5030639;28;20049;-69
2022/08/05 03:46:09;;;;;;;6.40;3.10;;;18.90;99.90;;;;;;5016028;28;20575;-70
2022/08/05 03:48:36;;;;;;;5.35;3.25;;;19.00;99.90;;;;;;5020749;28;20044;-69
2022/08/05 03:51:10;;;;;;;5.80;2.63;;;19.00;99.90;;;;;;5012998;28;20053;-69
2022/08/05 03:53:44;;;;;;;6.18;2.83;;;19.10;99.90;;;;;;5014093;28;20057;-69
2022/08/05 03:56:17;;;;;;;9.35;3.05;;;19.10;99.90;;;;;;5032662;28;20056;-70
2022/08/05 03:58:46;;;;;;;5.32;2.97;;;19.10;99.90;;;;;;5013453;28;20064;-70
2022/08/05 04:01:16;;;;;;;4.95;2.53;;;19.10;99.90;;;;;;5014042;28;20390;-70
2022/08/05 04:03:46;;;;;;;8.68;3.35;;;19.10;99.90;;;;;;5035372;28;20410;-70
2022/08/05 04:06:13;;;;;;;5.03;2.75;;;19.00;99.90;;;;;;5013700;28;20061;-69
2022/08/05 04:08:42;;;;;;;5.93;3.42;;;19.00;99.90;;;;;;5017655;28;20041;-69
2022/08/05 04:11:09;;;;;;;7.63;3.05;;;19.00;99.90;;;;;;5015140;28;20054;-68
2022/08/05 04:13:39;;;;;;;7.15;3.00;;;18.90;99.90;;;;;;5031339;28;20436;-69
2022/08/05 04:16:08;;;;;;;9.17;3.40;;;18.90;99.90;;;;;;5015912;28;20050;-70
2022/08/05 04:18:35;;;;;;;6.53;3.00;;;18.80;99.90;;;;;;5031657;28;20049;-70
2022/08/05 04:21:03;;;;;;;6.20;2.88;;;18.70;99.90;;;;;;5031496;28;20060;-70
2022/08/05 04:23:32;;;;;;;5.18;2.67;;;18.80;99.90;;;;;;5015121;28;20077;-69
2022/08/05 04:26:00;;;;;;;14.95;3.17;;;18.80;99.90;;;;;;5014075;28;20053;-69
2022/08/05 04:28:27;;;;;;;4.53;2.17;;;18.90;99.90;;;;;;5013330;28;20045;-69
2022/08/05 04:30:54;;;;;;;6.82;3.00;;;18.90;99.90;;;;;;5021419;28;20060;-69
2022/08/05 04:33:21;;;;;;;4.93;2.97;;;18.80;99.90;;;;;;5021789;28;20076;-69
2022/08/05 04:35:48;;;;;;;4.70;2.58;;;18.90;99.90;;;;;;5022532;28;20425;-69
2022/08/05 04:38:15;;;;;;;4.03;2.50;;;18.80;99.90;;;;;;5027627;28;20053;-69
2022/08/05 04:40:42;;;;;;;4.47;2.83;;;18.90;99.90;;;;;;5017080;28;20560;-70
2022/08/05 04:43:10;;;;;;;8.45;3.33;;;18.90;99.90;;;;;;5016725;28;20057;-69
2022/08/05 04:45:37;;;;;;;4.47;3.30;;;18.80;99.90;;;;;;5016736;28;20060;-70
2022/08/05 04:48:05;;;;;;;7.05;2.85;;;18.70;99.90;;;;;;5017687;28;20994;-70
2022/08/05 04:50:38;;;;;;;6.20;3.25;;;18.60;99.90;;;;;;5034984;28;20057;-70
2022/08/05 04:53:04;;;;;;;5.72;3.40;;;18.50;99.90;;;;;;5018078;28;20402;-70
2022/08/05 04:55:31;;;;;;;6.30;2.95;;;18.50;99.90;;;;;;5017528;28;20045;-69
2022/08/05 04:57:58;;;;;;;5.85;3.95;;;18.50;99.90;;;;;;5034589;28;20379;-69
2022/08/05 05:00:27;;;;;;;10.95;3.92;;;18.40;99.90;;;;;;5033698;28;20049;-69
2022/08/05 05:02:54;;;;;;;7.15;3.42;;;18.40;99.90;;;;;;5034485;28;20060;-69
2022/08/05 05:05:20;;;;;;;7.30;3.55;;;18.40;99.90;;;;;;5039884;28;20413;-70
2022/08/05 05:07:47;;;;;;;5.45;3.20;;;18.40;99.90;;;;;;5038491;28;20107;-69
2022/08/05 05:10:14;;;;;;;6.05;3.40;;;18.40;99.90;;;;;;5034531;28;20049;-70
2022/08/05 05:12:41;;;;;;;4.75;3.22;;;18.50;99.90;;;;;;5036397;28;20468;-71
2022/08/05 05:15:09;;;;;;;6.63;3.20;;;18.50;99.90;;;;;;5016173;28;20452;-70
2022/08/05 05:17:42;;;;;;;6.32;3.33;;;18.50;99.90;;;;;;5033136;28;20111;-70
2022/08/05 05:20:11;;;;;;;8.00;3.72;;;18.50;99.90;;;;;;5037742;28;20463;-69
2022/08/05 05:22:38;;;;;;;6.70;3.55;;;18.50;99.90;;;;;;5026922;28;20049;-69
2022/08/05 05:25:06;;;;;;;6.03;3.60;;;18.40;99.90;;;;;;5034515;28;20037;-69
2022/08/05 05:27:34;;;;;;;5.55;3.60;;;18.30;99.90;;;;;;5015331;28;20057;-69
2022/08/05 05:30:01;;;;;;;5.05;3.40;;;18.20;99.90;;;;;;5016245;28;20060;-69
2022/08/05 05:32:28;;;;;;;3.78;2.80;;;18.10;99.90;;;;;;5015713;28;20092;-69
2022/08/05 05:34:56;;;;;;;7.03;3.88;;;18.10;99.90;;;;;;5016869;28;20049;-70
2022/08/05 05:37:23;;;;;;;4.68;3.15;;;18.20;99.90;;;;;;5016044;28;20516;-70
2022/08/05 05:39:50;;;;;;;6.35;2.80;;;18.20;99.90;;;;;;5033899;28;20053;-69
2022/08/05 05:42:17;;;;;;;6.15;3.05;;;18.30;99.90;;;;;;5033103;28;20041;-70
2022/08/05 05:44:44;;;;;;;4.75;2.72;;;18.30;99.90;;;;;;5017210;28;20473;-70
2022/08/05 05:47:11;;;;;;;6.68;3.45;;;18.30;99.90;;;;;;5015665;28;20107;-70
2022/08/05 05:49:38;;;;;;;7.28;3.88;;;18.30;99.90;;;;;;5014939;28;20049;-70
2022/08/05 05:52:06;;;;;;;6.05;3.13;;;18.30;99.90;;;;;;5015559;28;20049;-70
2022/08/05 05:54:33;;;;;;;4.57;3.63;;;18.40;99.90;;;;;;5016674;28;20119;-69
2022/08/05 05:57:00;;;;;;;5.35;3.65;;;18.30;99.90;;;;;;5014895;28;20060;-70
2022/08/05 05:59:27;;;;;;;4.53;2.88;;;18.30;99.90;;;;;;5033785;28;20053;-70
2022/08/05 06:01:54;;;;;;;6.22;4.00;;;18.30;99.90;;;;;;5032105;28;20049;-70
2022/08/05 06:04:21;;;;;;;4.47;3.65;;;18.40;99.90;;;;;;5049810;28;20045;-69
2022/08/05 06:06:48;;;;;;;5.90;3.55;;;18.40;99.90;;;;;;5054273;28;20500;-69
2022/08/05 06:09:17;;;;;;;6.25;3.88;;;18.50;99.90;;;;;;5054392;28;20049;-70
2022/08/05 06:11:44;;;;;;;5.78;3.83;;;18.40;99.90;;;;;;5053246;28;20441;-70
2022/08/05 06:14:11;;;;;;;6.43;4.13;;;18.60;99.90;;;;;;5036410;28;20049;-69
2022/08/05 06:16:38;;;;;;;6.45;3.28;;;18.80;99.90;;;;;;5053724;28;20049;-70
2022/08/05 06:19:05;;;;;;;4.57;2.60;;;19.00;99.90;;;;;;5035161;28;20057;-70
2022/08/05 06:21:32;;;;;;;4.38;2.88;;;19.20;99.90;;;;;;5028035;28;20057;-68
2022/08/05 06:23:59;;;;;;;3.67;2.53;;;19.60;99.90;;;;;;5053654;28;20053;-70
2022/08/05 06:26:27;;;;;;;6.40;2.80;;;19.90;99.90;;;;;;5035885;28;20052;-70
2022/08/05 06:28:54;;;;;;;3.42;2.30;;;20.10;99.90;;;;;;5036500;28;20049;-70
2022/08/05 06:31:21;;;;;;;8.02;2.70;;;20.10;99.90;;;;;;5042753;28;20576;-70
2022/08/05 06:33:48;;;;;;;3.38;2.05;;;20.40;99.90;;;;;;5016469;28;20103;-70
2022/08/05 06:36:15;;;;;;;7.53;2.95;;;20.50;99.90;;;;;;5034369;28;20053;-70
2022/08/05 06:38:42;;;;;;;3.25;2.33;;;20.70;99.90;;;;;;5027849;28;20045;-70
2022/08/05 06:41:09;;;;;;;5.90;2.55;;;20.90;99.90;;;;;;5036259;28;20053;-70
2022/08/05 06:43:37;;;;;;;5.50;1.90;;;20.90;99.90;;;;;;5053468;28;20060;-70
2022/08/05 06:46:04;;;;;;;3.40;1.63;;;21.20;99.90;;;;;;5053651;28;20076;-70
2022/08/05 06:48:33;;;;;;;4.95;1.90;;;21.60;99.90;;;;;;5053929;28;20083;-70
2022/08/05 06:51:00;;;;;;;4.28;1.85;;;21.70;99.90;;;;;;5035888;28;20099;-70
2022/08/05 06:53:27;;;;;;;5.45;1.70;;;22.10;99.90;;;;;;5052277;28;20049;-70
2022/08/05 06:55:54;;;;;;;3.85;1.38;;;22.50;99.90;;;;;;5035291;28;20049;-70
2022/08/05 06:58:21;;;;;;;3.22;1.10;;;23.00;99.90;;;;;;5035602;28;20056;-70
2022/08/05 07:00:49;;;;;;;2.38;1.25;;;23.20;99.90;;;;;;5052812;28;20041;-71
2022/08/05 07:03:16;;;;;;;2.20;1.17;;;23.50;99.90;;;;;;5035071;28;20049;-70
2022/08/05 07:05:44;;;;;;;3.13;1.00;;;24.20;99.90;;;;;;5053373;28;20045;-70
2022/08/05 07:08:10;;;;;;;1.88;1.15;;;24.40;99.90;;;;;;5035287;28;20057;-71
2022/08/05 07:10:38;;;;;;;1.70;0.85;;;24.90;99.90;;;;;;5035999;28;20448;-71
2022/08/05 07:18:35;;;;;;;5.90;1.17;;;24.80;98.90;;;;;;5052980;28;20060;-70
2022/08/05 07:21:02;;;;;;;3.15;1.33;;;24.20;99.20;;;;;;5052213;28;20436;-71
2022/08/05 07:23:29;;;;;;;2.95;0.98;;;24.00;99.50;;;;;;5052694;28;20048;-70
2022/08/05 07:25:56;;;;;;;2.80;0.90;;;23.70;99.50;;;;;;5035291;28;20057;-70
2022/08/05 07:28:23;;;;;;;2.30;0.98;;;23.60;99.50;;;;;;5034999;28;20056;-70
2022/08/05 07:30:52;;;;;;;4.63;0.90;;;24.20;99.00;;;;;;5035142;28;20091;-70
2022/08/05 07:33:20;;;;;;;1.50;0.70;;;25.10;98.10;;;;;;5052383;28;20095;-70
2022/08/05 07:35:47;;;;;;;3.78;1.00;;;25.80;97.00;;;;;;5052197;28;20456;-71
2022/08/05 07:38:14;;;;;;;3.33;1.20;;;25.60;96.20;;;;;;5035367;28;20124;-72
2022/08/05 07:40:42;;;;;;;2.28;0.90;;;25.70;96.10;;;;;;5034967;28;20492;-71
2022/08/05 07:43:09;;;;;;;4.13;0.90;;;26.30;95.60;;;;;;5034342;28;20056;-71
2022/08/05 07:45:36;;;;;;;4.47;1.17;;;27.10;95.00;;;;;;5052710;28;20099;-71
2022/08/05 07:48:05;;;;;;;4.30;0.80;;;27.10;94.30;;;;;;5034634;28;20096;-72
2022/08/05 07:50:32;;;;;;;4.28;0.90;;;27.40;93.10;;;;;;5034288;28;20497;-71
2022/08/05 07:52:59;;;;;;;2.40;0.85;;;27.60;92.80;;;;;;5040958;28;20056;-71
2022/08/05 07:55:26;;;;;;;2.70;0.70;;;27.20;92.30;;;;;;5032200;28;20060;-70
2022/08/05 07:57:53;;;;;;;3.60;1.05;;;26.90;92.30;;;;;;5014202;28;20057;-71
2022/08/05 08:00:20;;;;;;;2.75;0.80;;;27.00;91.80;;;;;;5022099;28;20447;-71
2022/08/05 08:02:46;;;;;;;2.50;0.90;;;27.70;91.60;;;;;;5051786;28;20045;-71
2022/08/05 08:05:16;;;;;;;2.70;0.80;;;28.20;90.90;;;;;;5034863;28;20048;-70
2022/08/05 08:07:43;;;;;;;2.75;0.70;;;27.80;90.00;;;;;;5037252;28;20061;-71
2022/08/05 08:10:10;;;;;;;1.60;0.80;;;27.40;90.20;;;;;;5051606;28;20052;-71
2022/08/05 08:12:37;;;;;;;3.67;0.60;;;27.00;90.30;;;;;;5056424;28;20068;-71
2022/08/05 08:15:04;;;;;;;5.38;1.10;;;26.40;90.50;;;;;;5038563;28;20500;-71
2022/08/05 08:17:32;;;;;;;1.27;0.70;;;26.60;90.90;;;;;;5038056;28;20102;-71
2022/08/05 08:19:59;;;;;;;5.05;0.80;;;27.00;90.70;;;;;;5038574;28;20063;-70
2022/08/05 08:22:28;;;;;;;1.80;0.63;;;27.80;90.10;;;;;;5037749;28;20540;-72
2022/08/05 08:24:55;;;;;;;3.92;0.80;;;28.10;89.40;;;;;;5037072;28;20550;-71
2022/08/05 08:27:21;;;;;;;2.05;0.70;;;27.30;90.10;;;;;;5038915;28;20064;-71
2022/08/05 08:29:48;;;;;;;4.30;0.90;;;26.80;90.90;;;;;;5038212;28;20112;-70
2022/08/05 08:32:15;;;;;;;7.50;0.82;;;26.20;91.60;;;;;;5055753;28;20049;-71
2022/08/05 08:34:42;;;;;;;1.92;0.73;;;26.20;92.00;;;;;;5038579;28;20052;-70
2022/08/05 08:37:09;;;;;;;2.47;0.63;;;26.90;91.90;;;;;;5055962;28;20072;-71
2022/08/05 08:39:37;;;;;;;2.38;0.65;;;27.70;91.10;;;;;;5055408;28;20506;-70
2022/08/05 08:42:05;;;;;;;1.85;0.90;;;28.40;90.30;;;;;;5038268;28;20099;-71
2022/08/05 08:44:33;;;;;;;6.05;1.00;;;28.60;89.50;;;;;;5055314;28;20280;-72
2022/08/05 08:47:02;;;;;;;3.58;0.75;;;28.50;88.10;;;;;;5055726;28;20053;-70
2022/08/05 08:49:33;;;;;;;2.70;0.83;;;28.80;87.80;;;;;;5038441;28;20123;-71
2022/08/05 08:52:08;;;;;;;2.03;0.70;;;28.60;87.50;;;;;;5037544;28;20337;-71
2022/08/05 08:54:37;;;;;;;3.13;0.68;;;28.10;85.90;;;;;;5055712;28;20049;-71
2022/08/05 08:57:06;;;;;;;4.10;0.90;;;27.50;87.90;;;;;;5035758;28;20057;-71
2022/08/05 08:59:33;;;;;;;4.50;0.65;;;27.20;88.60;;;;;;5017694;28;20084;-72
2022/08/05 09:02:01;;;;;;;1.65;0.75;;;27.70;89.00;;;;;;5018147;28;20064;-72
2022/08/05 09:04:28;;;;;;;3.30;0.55;;;27.90;88.20;;;;;;5035292;28;20092;-72
2022/08/05 09:06:55;;;;;;;2.90;1.08;;;28.60;87.20;;;;;;5017738;28;20107;-72
2022/08/05 09:09:22;;;;;;;2.30;0.50;;;29.10;87.00;;;;;;5035469;28;20049;-71
2022/08/05 09:11:50;;;;;;;2.80;0.85;;;29.40;85.20;;;;;;5040066;28;20049;-71
2022/08/05 09:14:17;;;;;;;4.22;0.88;;;29.90;84.30;;;;;;5036771;28;20045;-72
2022/08/05 09:16:44;;;;;;;1.52;0.50;;;29.90;83.20;;;;;;5038125;28;20052;-71
2022/08/05 09:19:11;;;;;;;2.47;0.70;;;29.90;81.30;;;;;;5036352;28;20397;-72
2022/08/05 09:21:38;;;;;;;1.45;0.50;;;30.30;81.00;;;;;;5055073;28;20448;-72
2022/08/05 09:24:08;;;;;;;3.33;0.60;;;30.30;80.10;;;;;;5037216;28;20103;-72
2022/08/05 09:26:35;;;;;;;1.83;0.75;;;30.60;79.80;;;;;;5033085;28;20136;-72
2022/08/05 09:29:06;;;;;;;4.18;0.77;;;30.80;78.70;;;;;;5054735;28;20084;-72
2022/08/05 09:31:33;;;;;;;1.60;0.55;;;30.70;75.00;;;;;;5055354;28;20057;-72
2022/08/05 09:34:03;;;;;;;3.00;0.77;;;30.00;77.50;;;;;;5031983;28;20049;-72
2022/08/05 09:36:42;;;;;;;2.88;0.70;;;29.50;78.60;;;;;;5038918;28;20103;-71
2022/08/05 09:39:11;;;;;;;2.83;0.55;;;29.60;77.30;;;;;;5040019;28;20045;-72
2022/08/05 09:41:57;;;;;;;2.83;0.60;;;29.90;78.00;;;;;;5025452;28;20055;-71
2022/08/05 09:44:36;;;;;;;1.20;0.40;;;30.00;75.50;;;;;;5016580;28;20053;-71
2022/08/05 09:47:12;;;;;;;2.38;0.50;;;30.00;75.30;;;;;;5016311;28;20080;-71
2022/08/05 09:49:44;;;;;;;2.47;0.70;;;30.40;76.80;;;;;;5015725;28;20053;-71
2022/08/05 09:52:19;;;;;;;2.08;0.40;;;30.40;75.80;;;;;;5016441;28;20052;-73
2022/08/05 09:54:57;;;;;;;1.70;0.50;;;31.00;75.20;;;;;;5015467;28;20049;-72
2022/08/05 09:57:35;;;;;;;1.23;0.50;;;31.10;74.30;;;;;;5019920;28;20068;-73
2022/08/05 10:00:09;;;;;;;1.23;0.45;;;31.40;72.00;;;;;;5032662;28;20095;-72
2022/08/05 10:02:39;;;;;;;3.63;0.40;;;31.70;70.00;;;;;;5016915;28;20049;-72
2022/08/05 10:05:09;;;;;;;4.22;0.60;;;31.00;69.20;;;;;;5015811;28;20049;-71
2022/08/05 10:07:44;;;;;;;2.65;0.70;;;30.60;69.20;;;;;;5039585;28;20563;-71
2022/08/05 10:10:11;;;;;;;3.78;0.50;;;30.50;69.20;;;;;;5044953;28;20057;-72
2022/08/05 10:12:41;;;;;;;2.75;0.65;;;30.20;69.60;;;;;;5053701;28;20120;-72
2022/08/05 10:15:19;;;;;;;1.52;0.50;;;29.80;70.50;;;;;;5054890;28;20048;-72
2022/08/05 10:18:09;;;;;;;1.63;0.40;;;29.50;71.50;;;;;;5016238;28;20508;-72
2022/08/05 10:20:38;;;;;;;2.00;0.45;;;29.90;69.30;;;;;;4997199;28;20078;-72
2022/08/05 10:23:05;;;;;;;1.23;0.50;;;30.50;68.60;;;;;;4996834;28;20498;-72
2022/08/05 10:25:32;;;;;;;1.73;0.47;;;30.60;65.50;;;;;;5002084;28;20355;-72
2022/08/05 10:28:01;;;;;;;3.65;0.73;;;30.70;63.90;;;;;;5034398;28;20053;-72
2022/08/05 10:30:29;;;;;;;3.60;0.30;;;30.30;62.50;;;;;;5032530;28;20498;-73
2022/08/05 10:32:58;;;;;;;1.95;0.35;;;30.20;61.90;;;;;;5034293;28;20095;-72
2022/08/05 10:35:26;;;;;;;0.98;0.30;;;30.40;63.90;;;;;;5016165;28;20056;-73
2022/08/05 10:37:54;;;;;;;2.45;0.55;;;30.60;64.40;;;;;;5033486;28;20049;-72
2022/08/05 10:40:29;;;;;;;4.65;0.43;;;30.50;63.10;;;;;;5016483;28;20057;-73
2022/08/05 10:43:02;;;;;;;2.22;0.50;;;30.50;60.20;;;;;;5016285;28;20099;-72
2022/08/05 10:45:30;;;;;;;3.67;0.75;;;30.40;61.20;;;;;;5015420;28;20049;-71
2022/08/05 10:47:57;;;;;;;4.32;0.60;;;30.50;61.70;;;;;;5034262;28;20065;-72
2022/08/05 10:50:24;;;;;;;5.72;0.70;;;30.40;62.80;;;;;;5016196;28;20042;-72
2022/08/05 10:52:56;;;;;;;1.63;0.40;;;30.40;63.40;;;;;;5027061;28;20069;-72
2022/08/05 10:55:23;;;;;;;5.25;0.70;;;30.60;63.00;;;;;;5033074;28;20053;-72
2022/08/05 10:58:07;;;;;;;4.90;0.30;;;30.40;62.10;;;;;;5006868;28;20046;-71
2022/08/05 11:00:36;;;;;;;3.75;0.50;;;30.30;63.40;;;;;;5013423;28;20129;-72
2022/08/05 11:03:11;;;;;;;2.97;0.40;;;30.20;64.00;;;;;;4996576;28;20493;-71
2022/08/05 11:05:38;;;;;;;3.42;0.40;;;30.50;61.40;;;;;;5013241;28;20064;-71
2022/08/05 11:08:07;;;;;;;2.15;0.50;;;30.20;62.30;;;;;;5028077;28;20107;-71
2022/08/05 11:10:36;;;;;;;1.70;0.57;;;30.20;62.50;;;;;;5001979;28;20080;-71
2022/08/05 11:13:05;;;;;;;1.80;0.60;;;30.60;63.10;;;;;;5027743;28;20049;-71
2022/08/05 11:15:38;;;;;;;1.38;0.32;;;30.20;63.40;;;;;;5015376;28;20060;-72
2022/08/05 11:18:22;;;;;;;2.22;0.75;;;29.50;62.90;;;;;;5035364;28;20125;-72
2022/08/05 11:20:50;;;;;;;1.73;0.30;;;30.10;62.50;;;;;;5032511;28;20047;-72
2022/08/05 11:23:34;;;;;;;2.88;0.43;;;30.10;62.20;;;;;;5035507;28;20052;-72
2022/08/05 11:26:07;;;;;;;0.98;0.50;;;30.20;62.40;;;;;;5034410;28;20456;-71
2022/08/05 11:28:46;;;;;;;2.15;0.30;;;30.60;62.10;;;;;;5053030;28;20049;-72
2022/08/05 11:31:38;;;;;;;5.63;0.73;;;30.60;60.70;;;;;;5052961;28;20056;-73
2022/08/05 11:34:06;;;;;;;4.28;0.70;;;31.40;61.70;;;;;;5015953;28;20061;-71
2022/08/05 11:36:50;;;;;;;4.97;0.75;;;31.20;63.00;;;;;;5034992;28;20501;-71
2022/08/05 11:39:32;;;;;;;7.70;0.80;;;30.60;65.60;;;;;;5035432;28;20485;-71
2022/08/05 11:42:02;;;;;;;2.55;0.55;;;30.30;66.80;;;;;;5017823;28;20053;-71
2022/08/05 11:44:38;;;;;;;1.95;0.50;;;30.40;66.90;;;;;;5035503;28;20049;-71
2022/08/05 11:47:06;;;;;;;3.10;0.60;;;30.20;66.00;;;;;;5034603;28;20056;-71
2022/08/05 11:49:33;;;;;;;5.03;0.70;;;29.50;66.80;;;;;;5052536;28;20451;-71
2022/08/05 11:52:00;;;;;;;5.15;0.73;;;29.40;65.80;;;;;;5052711;28;20049;-72
2022/08/05 11:54:28;;;;;;;6.35;0.90;;;30.00;65.30;;;;;;5052190;28;20444;-71
2022/08/05 11:56:57;;;;;;;5.65;0.77;;;30.80;64.10;;;;;;5046135;28;20091;-72
2022/08/05 11:59:27;;;;;;;5.32;0.95;;;30.20;62.30;;;;;;5052317;28;20098;-72
2022/08/05 12:01:59;;;;;;;1.98;0.50;;;29.40;62.60;;;;;;5052167;28;20049;-71
2022/08/05 12:04:29;;;;;;;1.98;0.43;;;29.30;64.00;;;;;;5052342;28;20045;-72
2022/08/05 12:06:59;;;;;;;1.95;0.50;;;29.10;64.60;;;;;;5052182;28;20048;-71
2022/08/05 12:09:29;;;;;;;5.18;0.80;;;29.40;65.10;;;;;;5052077;28;20056;-72
2022/08/05 12:11:56;;;;;;;4.72;0.60;;;29.90;67.40;;;;;;5051901;28;20041;-71
2022/08/05 12:14:24;;;;;;;3.28;0.60;;;29.70;68.60;;;;;;5052573;28;20056;-72
2022/08/05 12:16:51;;;;;;;3.30;0.60;;;29.50;69.20;;;;;;5034225;28;20489;-71
2022/08/05 12:19:20;;;;;;;3.50;1.30;;;29.30;69.40;;;;;;5034137;28;20065;-71
2022/08/05 12:21:49;;;;;;;3.63;0.73;;;28.80;70.30;;;;;;5034475;28;20048;-72
2022/08/05 12:24:17;;;;;;;4.53;0.98;;;28.90;70.10;;;;;;5052090;28;20060;-71
2022/08/05 12:26:47;;;;;;;4.20;0.50;;;28.90;69.40;;;;;;5052053;28;20053;-71
2022/08/05 12:29:15;;;;;;;4.10;0.60;;;29.10;68.80;;;;;;5052187;28;20103;-71
2022/08/05 12:31:46;;;;;;;3.53;0.80;;;29.50;68.80;;;;;;5033959;28;20594;-71
2022/08/05 12:34:14;;;;;;;1.33;0.35;;;29.10;68.40;;;;;;5034690;28;20608;-71
2022/08/05 12:36:41;;;;;;;3.83;0.60;;;28.50;69.20;;;;;;5051767;28;20053;-71
2022/08/05 12:39:10;;;;;;;1.63;0.45;;;28.20;70.20;;;;;;5033732;28;20059;-71
2022/08/05 12:41:39;;;;;;;1.63;0.43;;;28.40;70.50;;;;;;5051896;28;20045;-71
2022/08/05 12:44:08;;;;;;;0.90;0.50;;;28.50;70.40;;;;;;5051719;28;20049;-72
2022/08/05 12:46:36;;;;;;;1.93;0.40;;;28.50;69.00;;;;;;5052144;28;20049;-71
2022/08/05 12:49:06;;;;;;;3.63;0.52;;;28.80;67.90;;;;;;5051957;28;20284;-70
2022/08/05 12:51:44;;;;;;;2.42;0.57;;;29.60;67.10;;;;;;5051465;28;20443;-71
2022/08/05 12:54:20;;;;;;;2.85;0.80;;;30.20;64.70;;;;;;5055041;28;20057;-71
2022/08/05 12:56:52;;;;;;;3.28;0.68;;;30.20;63.70;;;;;;5054764;28;20056;-72
2022/08/05 12:59:21;;;;;;;2.53;0.60;;;30.30;64.20;;;;;;5053422;28;20505;-71
2022/08/05 13:01:56;;;;;;;1.67;0.40;;;29.80;64.90;;;;;;5055116;28;20052;-71